sensor_id;sensor_type;location;lat;lon;timestamp;P1;durP1;ratioP1;P2;durP2;ratioP2
20283;SDS011;10301;50.832;4.080;2024-02-28T00:01:37;14.50;;;9.47;;
20283;SDS011;10301;50.832;4.080;2024-02-28T00:04:02;14.70;;;9.40;;
20283;SDS011;10301;50.832;4.080;2024-02-28T00:06:28;14.97;;;8.90;;
20283;SDS011;10301;50.832;4.080;2024-02-28T00:08:54;16.03;;;9.47;;
20283;SDS011;10301;50.832;4.080;2024-02-28T00:11:20;14.97;;;9.50;;
20283;SDS011;10301;50.832;4.080;2024-02-28T00:13:46;13.57;;;9.63;;
20283;SDS011;10301;50.832;4.080;2024-02-28T00:16:12;15.27;;;9.50;;
20283;SDS011;10301;50.832;4.080;2024-02-28T00:18:37;18.33;;;10.90;;
20283;SDS011;10301;50.832;4.080;2024-02-28T00:21:03;19.57;;;11.07;;
20283;SDS011;10301;50.832;4.080;2024-02-28T00:23:29;20.47;;;12.23;;
20283;SDS011;10301;50.832;4.080;2024-02-28T00:25:55;29.77;;;21.33;;
20283;SDS011;10301;50.832;4.080;2024-02-28T00:28:21;33.73;;;21.47;;
20283;SDS011;10301;50.832;4.080;2024-02-28T00:30:46;23.50;;;16.03;;
20283;SDS011;10301;50.832;4.080;2024-02-28T00:33:12;19.53;;;13.80;;
20283;SDS011;10301;50.832;4.080;2024-02-28T00:35:39;19.53;;;12.73;;
20283;SDS011;10301;50.832;4.080;2024-02-28T00:38:05;17.30;;;11.07;;
20283;SDS011;10301;50.832;4.080;2024-02-28T00:40:30;16.93;;;10.50;;
20283;SDS011;10301;50.832;4.080;2024-02-28T00:42:57;19.50;;;10.80;;
20283;SDS011;10301;50.832;4.080;2024-02-28T00:45:23;19.23;;;10.57;;
20283;SDS011;10301;50.832;4.080;2024-02-28T00:47:48;20.23;;;12.77;;
20283;SDS011;10301;50.832;4.080;2024-02-28T00:50:14;22.47;;;13.23;;
20283;SDS011;10301;50.832;4.080;2024-02-28T00:52:40;19.87;;;11.57;;
20283;SDS011;10301;50.832;4.080;2024-02-28T00:55:06;18.47;;;10.30;;
20283;SDS011;10301;50.832;4.080;2024-02-28T00:57:32;17.33;;;10.10;;
20283;SDS011;10301;50.832;4.080;2024-02-28T00:59:58;15.87;;;9.97;;
20283;SDS011;10301;50.832;4.080;2024-02-28T01:02:24;16.57;;;9.50;;
20283;SDS011;10301;50.832;4.080;2024-02-28T01:04:50;18.83;;;11.07;;
20283;SDS011;10301;50.832;4.080;2024-02-28T01:07:15;21.37;;;12.50;;
20283;SDS011;10301;50.832;4.080;2024-02-28T01:09:41;21.93;;;12.77;;
20283;SDS011;10301;50.832;4.080;2024-02-28T01:12:07;21.17;;;12.70;;
20283;SDS011;10301;50.832;4.080;2024-02-28T01:14:33;19.73;;;11.93;;
20283;SDS011;10301;50.832;4.080;2024-02-28T01:16:58;17.90;;;11.07;;
20283;SDS011;10301;50.832;4.080;2024-02-28T01:19:24;15.53;;;9.80;;
20283;SDS011;10301;50.832;4.080;2024-02-28T01:21:50;15.20;;;9.50;;
20283;SDS011;10301;50.832;4.080;2024-02-28T01:24:15;17.93;;;9.67;;
20283;SDS011;10301;50.832;4.080;2024-02-28T01:26:42;19.63;;;10.57;;
20283;SDS011;10301;50.832;4.080;2024-02-28T01:29:07;20.03;;;12.40;;
20283;SDS011;10301;50.832;4.080;2024-02-28T01:31:33;21.40;;;11.73;;
20283;SDS011;10301;50.832;4.080;2024-02-28T01:33:58;29.83;;;15.03;;
20283;SDS011;10301;50.832;4.080;2024-02-28T01:36:24;23.20;;;12.77;;
20283;SDS011;10301;50.832;4.080;2024-02-28T01:38:51;22.50;;;13.20;;
20283;SDS011;10301;50.832;4.080;2024-02-28T01:41:17;23.00;;;13.47;;
20283;SDS011;10301;50.832;4.080;2024-02-28T01:43:42;24.73;;;13.40;;
20283;SDS011;10301;50.832;4.080;2024-02-28T01:46:26;24.80;;;13.17;;
20283;SDS011;10301;50.832;4.080;2024-02-28T01:48:56;25.83;;;14.90;;
20283;SDS011;10301;50.832;4.080;2024-02-28T01:51:25;23.13;;;14.10;;
20283;SDS011;10301;50.832;4.080;2024-02-28T01:53:54;25.63;;;14.90;;
20283;SDS011;10301;50.832;4.080;2024-02-28T01:56:20;26.80;;;15.40;;
20283;SDS011;10301;50.832;4.080;2024-02-28T01:58:48;24.47;;;14.43;;
20283;SDS011;10301;50.832;4.080;2024-02-28T02:01:14;24.80;;;14.50;;
20283;SDS011;10301;50.832;4.080;2024-02-28T02:03:43;26.97;;;14.73;;
20283;SDS011;10301;50.832;4.080;2024-02-28T02:06:09;23.27;;;13.43;;
20283;SDS011;10301;50.832;4.080;2024-02-28T02:08:36;24.13;;;14.00;;
20283;SDS011;10301;50.832;4.080;2024-02-28T02:11:02;32.73;;;16.67;;
20283;SDS011;10301;50.832;4.080;2024-02-28T02:13:28;30.63;;;18.13;;
20283;SDS011;10301;50.832;4.080;2024-02-28T02:15:53;34.53;;;19.23;;
20283;SDS011;10301;50.832;4.080;2024-02-28T02:18:19;42.83;;;21.50;;
20283;SDS011;10301;50.832;4.080;2024-02-28T02:20:46;37.57;;;19.53;;
20283;SDS011;10301;50.832;4.080;2024-02-28T02:23:25;25.40;;;15.67;;
20283;SDS011;10301;50.832;4.080;2024-02-28T02:25:51;25.50;;;15.40;;
20283;SDS011;10301;50.832;4.080;2024-02-28T02:28:16;29.83;;;15.57;;
20283;SDS011;10301;50.832;4.080;2024-02-28T02:30:42;24.83;;;15.20;;
20283;SDS011;10301;50.832;4.080;2024-02-28T02:33:08;21.53;;;14.83;;
20283;SDS011;10301;50.832;4.080;2024-02-28T02:35:34;27.23;;;14.63;;
20283;SDS011;10301;50.832;4.080;2024-02-28T02:38:00;28.37;;;15.93;;
20283;SDS011;10301;50.832;4.080;2024-02-28T02:40:25;29.57;;;15.43;;
20283;SDS011;10301;50.832;4.080;2024-02-28T02:42:51;26.23;;;16.43;;
20283;SDS011;10301;50.832;4.080;2024-02-28T02:45:17;27.97;;;16.07;;
20283;SDS011;10301;50.832;4.080;2024-02-28T02:47:42;24.83;;;15.63;;
20283;SDS011;10301;50.832;4.080;2024-02-28T02:50:11;30.63;;;15.63;;
20283;SDS011;10301;50.832;4.080;2024-02-28T02:52:37;29.90;;;15.27;;
20283;SDS011;10301;50.832;4.080;2024-02-28T02:55:03;28.77;;;16.70;;
20283;SDS011;10301;50.832;4.080;2024-02-28T02:57:29;33.27;;;18.93;;
20283;SDS011;10301;50.832;4.080;2024-02-28T02:59:56;30.53;;;18.77;;
20283;SDS011;10301;50.832;4.080;2024-02-28T03:02:22;33.10;;;19.17;;
20283;SDS011;10301;50.832;4.080;2024-02-28T03:04:47;32.97;;;18.17;;
20283;SDS011;10301;50.832;4.080;2024-02-28T03:07:13;32.57;;;19.00;;
20283;SDS011;10301;50.832;4.080;2024-02-28T03:09:38;31.93;;;19.87;;
20283;SDS011;10301;50.832;4.080;2024-02-28T03:12:04;32.50;;;17.60;;
20283;SDS011;10301;50.832;4.080;2024-02-28T03:14:30;28.53;;;16.30;;
20283;SDS011;10301;50.832;4.080;2024-02-28T03:16:55;28.83;;;17.47;;
20283;SDS011;10301;50.832;4.080;2024-02-28T03:19:21;26.90;;;14.83;;
20283;SDS011;10301;50.832;4.080;2024-02-28T03:21:47;27.53;;;15.07;;
20283;SDS011;10301;50.832;4.080;2024-02-28T03:24:13;23.90;;;14.40;;
20283;SDS011;10301;50.832;4.080;2024-02-28T03:26:38;28.07;;;16.70;;
20283;SDS011;10301;50.832;4.080;2024-02-28T03:29:04;26.87;;;14.27;;
20283;SDS011;10301;50.832;4.080;2024-02-28T03:31:30;23.10;;;14.27;;
20283;SDS011;10301;50.832;4.080;2024-02-28T03:33:55;26.53;;;14.43;;
20283;SDS011;10301;50.832;4.080;2024-02-28T03:36:21;26.67;;;13.77;;
20283;SDS011;10301;50.832;4.080;2024-02-28T03:38:46;20.40;;;12.90;;
20283;SDS011;10301;50.832;4.080;2024-02-28T03:41:12;21.57;;;13.70;;
20283;SDS011;10301;50.832;4.080;2024-02-28T03:43:38;27.10;;;14.37;;
20283;SDS011;10301;50.832;4.080;2024-02-28T03:46:03;33.50;;;15.77;;
20283;SDS011;10301;50.832;4.080;2024-02-28T03:48:29;27.77;;;16.00;;
20283;SDS011;10301;50.832;4.080;2024-02-28T03:50:55;29.73;;;17.50;;
20283;SDS011;10301;50.832;4.080;2024-02-28T03:53:20;24.93;;;15.90;;
20283;SDS011;10301;50.832;4.080;2024-02-28T03:55:46;28.47;;;15.93;;
20283;SDS011;10301;50.832;4.080;2024-02-28T03:58:12;25.03;;;15.60;;
20283;SDS011;10301;50.832;4.080;2024-02-28T04:00:37;27.80;;;15.53;;
20283;SDS011;10301;50.832;4.080;2024-02-28T04:03:04;35.00;;;16.70;;
20283;SDS011;10301;50.832;4.080;2024-02-28T04:05:30;25.23;;;15.63;;
20283;SDS011;10301;50.832;4.080;2024-02-28T04:07:56;26.73;;;14.37;;
20283;SDS011;10301;50.832;4.080;2024-02-28T04:10:21;27.17;;;16.77;;
20283;SDS011;10301;50.832;4.080;2024-02-28T04:12:47;30.57;;;17.37;;
20283;SDS011;10301;50.832;4.080;2024-02-28T04:15:13;31.57;;;17.70;;
20283;SDS011;10301;50.832;4.080;2024-02-28T04:17:39;34.53;;;17.93;;
20283;SDS011;10301;50.832;4.080;2024-02-28T04:22:36;29.40;;;17.10;;
20283;SDS011;10301;50.832;4.080;2024-02-28T04:25:02;31.00;;;17.43;;
20283;SDS011;10301;50.832;4.080;2024-02-28T04:27:28;33.60;;;17.73;;
20283;SDS011;10301;50.832;4.080;2024-02-28T04:29:54;35.17;;;17.97;;
20283;SDS011;10301;50.832;4.080;2024-02-28T04:32:20;33.30;;;19.73;;
20283;SDS011;10301;50.832;4.080;2024-02-28T04:34:45;34.13;;;19.30;;
20283;SDS011;10301;50.832;4.080;2024-02-28T04:37:11;31.90;;;19.43;;
20283;SDS011;10301;50.832;4.080;2024-02-28T04:39:36;32.97;;;19.53;;
20283;SDS011;10301;50.832;4.080;2024-02-28T04:42:02;35.53;;;19.23;;
20283;SDS011;10301;50.832;4.080;2024-02-28T04:44:28;37.90;;;20.20;;
20283;SDS011;10301;50.832;4.080;2024-02-28T04:46:53;33.40;;;20.17;;
20283;SDS011;10301;50.832;4.080;2024-02-28T04:49:19;34.00;;;20.03;;
20283;SDS011;10301;50.832;4.080;2024-02-28T04:51:45;30.13;;;20.07;;
20283;SDS011;10301;50.832;4.080;2024-02-28T04:54:10;37.17;;;21.13;;
20283;SDS011;10301;50.832;4.080;2024-02-28T04:56:40;37.33;;;21.33;;
20283;SDS011;10301;50.832;4.080;2024-02-28T04:59:06;39.27;;;20.07;;
20283;SDS011;10301;50.832;4.080;2024-02-28T05:01:32;39.40;;;19.50;;
20283;SDS011;10301;50.832;4.080;2024-02-28T05:04:00;34.10;;;20.43;;
20283;SDS011;10301;50.832;4.080;2024-02-28T05:06:26;33.43;;;20.63;;
20283;SDS011;10301;50.832;4.080;2024-02-28T05:08:52;32.20;;;19.97;;
20283;SDS011;10301;50.832;4.080;2024-02-28T05:11:17;36.10;;;20.73;;
20283;SDS011;10301;50.832;4.080;2024-02-28T05:13:43;38.33;;;20.40;;
20283;SDS011;10301;50.832;4.080;2024-02-28T05:16:15;36.17;;;21.07;;
20283;SDS011;10301;50.832;4.080;2024-02-28T05:18:41;38.43;;;20.73;;
20283;SDS011;10301;50.832;4.080;2024-02-28T05:21:09;36.13;;;20.10;;
20283;SDS011;10301;50.832;4.080;2024-02-28T05:23:35;36.70;;;20.77;;
20283;SDS011;10301;50.832;4.080;2024-02-28T05:26:01;34.70;;;18.77;;
20283;SDS011;10301;50.832;4.080;2024-02-28T05:28:29;34.53;;;18.60;;
20283;SDS011;10301;50.832;4.080;2024-02-28T05:30:55;34.23;;;19.53;;
20283;SDS011;10301;50.832;4.080;2024-02-28T05:33:21;33.40;;;18.00;;
20283;SDS011;10301;50.832;4.080;2024-02-28T05:35:47;28.80;;;19.33;;
20283;SDS011;10301;50.832;4.080;2024-02-28T05:38:13;37.90;;;18.50;;
20283;SDS011;10301;50.832;4.080;2024-02-28T05:40:41;31.97;;;18.77;;
20283;SDS011;10301;50.832;4.080;2024-02-28T05:43:07;31.00;;;18.03;;
20283;SDS011;10301;50.832;4.080;2024-02-28T05:45:32;35.30;;;20.43;;
20283;SDS011;10301;50.832;4.080;2024-02-28T05:47:58;35.87;;;19.30;;
20283;SDS011;10301;50.832;4.080;2024-02-28T05:50:24;31.47;;;18.20;;
20283;SDS011;10301;50.832;4.080;2024-02-28T05:52:50;33.17;;;19.60;;
20283;SDS011;10301;50.832;4.080;2024-02-28T05:55:16;36.40;;;18.60;;
20283;SDS011;10301;50.832;4.080;2024-02-28T05:57:42;31.97;;;19.63;;
20283;SDS011;10301;50.832;4.080;2024-02-28T06:00:08;37.47;;;20.63;;
20283;SDS011;10301;50.832;4.080;2024-02-28T06:02:37;37.20;;;20.10;;
20283;SDS011;10301;50.832;4.080;2024-02-28T06:05:03;34.97;;;20.17;;
20283;SDS011;10301;50.832;4.080;2024-02-28T06:07:29;32.40;;;20.30;;
20283;SDS011;10301;50.832;4.080;2024-02-28T06:09:55;38.57;;;19.27;;
20283;SDS011;10301;50.832;4.080;2024-02-28T06:12:21;33.97;;;18.80;;
20283;SDS011;10301;50.832;4.080;2024-02-28T06:14:47;36.37;;;19.87;;
20283;SDS011;10301;50.832;4.080;2024-02-28T06:17:12;37.77;;;20.20;;
20283;SDS011;10301;50.832;4.080;2024-02-28T06:19:38;35.67;;;20.70;;
20283;SDS011;10301;50.832;4.080;2024-02-28T06:22:04;41.43;;;24.47;;
20283;SDS011;10301;50.832;4.080;2024-02-28T06:24:29;34.87;;;20.23;;
20283;SDS011;10301;50.832;4.080;2024-02-28T06:26:58;35.57;;;24.03;;
20283;SDS011;10301;50.832;4.080;2024-02-28T06:29:24;34.53;;;20.77;;
20283;SDS011;10301;50.832;4.080;2024-02-28T06:31:50;44.90;;;35.93;;
20283;SDS011;10301;50.832;4.080;2024-02-28T06:34:16;36.67;;;21.20;;
20283;SDS011;10301;50.832;4.080;2024-02-28T06:36:43;38.40;;;22.60;;
20283;SDS011;10301;50.832;4.080;2024-02-28T06:39:08;41.33;;;22.57;;
20283;SDS011;10301;50.832;4.080;2024-02-28T06:41:34;39.23;;;22.63;;
20283;SDS011;10301;50.832;4.080;2024-02-28T06:43:59;44.80;;;22.57;;
20283;SDS011;10301;50.832;4.080;2024-02-28T06:46:25;40.03;;;24.37;;
20283;SDS011;10301;50.832;4.080;2024-02-28T06:48:51;34.30;;;19.93;;
20283;SDS011;10301;50.832;4.080;2024-02-28T06:51:17;39.80;;;23.60;;
20283;SDS011;10301;50.832;4.080;2024-02-28T06:53:43;35.93;;;20.90;;
20283;SDS011;10301;50.832;4.080;2024-02-28T06:56:08;37.50;;;21.70;;
20283;SDS011;10301;50.832;4.080;2024-02-28T06:58:34;36.07;;;20.43;;
20283;SDS011;10301;50.832;4.080;2024-02-28T07:01:00;37.07;;;22.73;;
20283;SDS011;10301;50.832;4.080;2024-02-28T07:03:25;37.73;;;21.30;;
20283;SDS011;10301;50.832;4.080;2024-02-28T07:05:51;31.80;;;19.17;;
20283;SDS011;10301;50.832;4.080;2024-02-28T07:08:18;34.13;;;19.93;;
20283;SDS011;10301;50.832;4.080;2024-02-28T07:10:43;40.87;;;22.60;;
20283;SDS011;10301;50.832;4.080;2024-02-28T07:13:12;36.23;;;19.33;;
20283;SDS011;10301;50.832;4.080;2024-02-28T07:15:38;33.87;;;18.60;;
20283;SDS011;10301;50.832;4.080;2024-02-28T07:18:05;33.23;;;18.33;;
20283;SDS011;10301;50.832;4.080;2024-02-28T07:20:31;32.53;;;18.37;;
20283;SDS011;10301;50.832;4.080;2024-02-28T07:22:56;34.97;;;17.57;;
20283;SDS011;10301;50.832;4.080;2024-02-28T07:25:22;35.67;;;18.57;;
20283;SDS011;10301;50.832;4.080;2024-02-28T07:27:47;32.93;;;18.13;;
20283;SDS011;10301;50.832;4.080;2024-02-28T07:30:13;34.10;;;18.10;;
20283;SDS011;10301;50.832;4.080;2024-02-28T07:32:39;35.63;;;17.57;;
20283;SDS011;10301;50.832;4.080;2024-02-28T07:35:05;31.80;;;15.90;;
20283;SDS011;10301;50.832;4.080;2024-02-28T07:37:31;32.33;;;16.67;;
20283;SDS011;10301;50.832;4.080;2024-02-28T07:39:56;34.13;;;15.80;;
20283;SDS011;10301;50.832;4.080;2024-02-28T07:42:22;30.53;;;16.23;;
20283;SDS011;10301;50.832;4.080;2024-02-28T07:44:48;27.53;;;16.13;;
20283;SDS011;10301;50.832;4.080;2024-02-28T07:47:18;27.23;;;15.77;;
20283;SDS011;10301;50.832;4.080;2024-02-28T07:49:47;33.00;;;15.97;;
20283;SDS011;10301;50.832;4.080;2024-02-28T07:52:13;26.73;;;14.37;;
20283;SDS011;10301;50.832;4.080;2024-02-28T07:54:41;26.80;;;14.10;;
20283;SDS011;10301;50.832;4.080;2024-02-28T07:57:08;30.77;;;15.13;;
20283;SDS011;10301;50.832;4.080;2024-02-28T07:59:38;27.23;;;14.73;;
20283;SDS011;10301;50.832;4.080;2024-02-28T08:02:07;26.13;;;14.47;;
20283;SDS011;10301;50.832;4.080;2024-02-28T08:04:34;29.67;;;14.50;;
20283;SDS011;10301;50.832;4.080;2024-02-28T08:07:00;26.07;;;14.50;;
20283;SDS011;10301;50.832;4.080;2024-02-28T08:09:26;27.03;;;14.67;;
20283;SDS011;10301;50.832;4.080;2024-02-28T08:11:52;29.90;;;14.20;;
20283;SDS011;10301;50.832;4.080;2024-02-28T08:14:17;25.23;;;13.67;;
20283;SDS011;10301;50.832;4.080;2024-02-28T08:16:43;35.13;;;14.27;;
20283;SDS011;10301;50.832;4.080;2024-02-28T08:19:09;28.00;;;14.30;;
20283;SDS011;10301;50.832;4.080;2024-02-28T08:21:34;29.50;;;14.10;;
20283;SDS011;10301;50.832;4.080;2024-02-28T08:24:00;25.33;;;13.33;;
20283;SDS011;10301;50.832;4.080;2024-02-28T08:26:29;24.30;;;13.37;;
20283;SDS011;10301;50.832;4.080;2024-02-28T08:28:55;23.93;;;13.90;;
20283;SDS011;10301;50.832;4.080;2024-02-28T08:31:21;26.47;;;14.80;;
20283;SDS011;10301;50.832;4.080;2024-02-28T08:33:46;29.73;;;13.83;;
20283;SDS011;10301;50.832;4.080;2024-02-28T08:36:12;26.83;;;14.17;;
20283;SDS011;10301;50.832;4.080;2024-02-28T08:38:38;27.10;;;15.10;;
20283;SDS011;10301;50.832;4.080;2024-02-28T08:41:04;27.60;;;14.63;;
20283;SDS011;10301;50.832;4.080;2024-02-28T08:43:30;31.47;;;14.37;;
20283;SDS011;10301;50.832;4.080;2024-02-28T08:45:55;25.37;;;14.40;;
20283;SDS011;10301;50.832;4.080;2024-02-28T08:48:21;26.20;;;14.20;;
20283;SDS011;10301;50.832;4.080;2024-02-28T08:50:48;26.77;;;14.17;;
20283;SDS011;10301;50.832;4.080;2024-02-28T08:53:13;32.37;;;15.93;;
20283;SDS011;10301;50.832;4.080;2024-02-28T08:55:39;24.90;;;14.60;;
20283;SDS011;10301;50.832;4.080;2024-02-28T08:58:05;24.57;;;13.97;;
20283;SDS011;10301;50.832;4.080;2024-02-28T09:00:30;23.50;;;13.73;;
20283;SDS011;10301;50.832;4.080;2024-02-28T09:02:56;25.63;;;12.83;;
20283;SDS011;10301;50.832;4.080;2024-02-28T09:05:22;25.30;;;14.00;;
20283;SDS011;10301;50.832;4.080;2024-02-28T09:07:49;25.77;;;13.53;;
20283;SDS011;10301;50.832;4.080;2024-02-28T09:10:17;35.70;;;18.90;;
20283;SDS011;10301;50.832;4.080;2024-02-28T09:12:48;27.07;;;14.13;;
20283;SDS011;10301;50.832;4.080;2024-02-28T09:15:17;30.93;;;14.70;;
20283;SDS011;10301;50.832;4.080;2024-02-28T09:17:43;24.37;;;14.13;;
20283;SDS011;10301;50.832;4.080;2024-02-28T09:20:09;26.03;;;14.03;;
20283;SDS011;10301;50.832;4.080;2024-02-28T09:22:35;27.10;;;13.80;;
20283;SDS011;10301;50.832;4.080;2024-02-28T09:25:01;24.97;;;13.97;;
20283;SDS011;10301;50.832;4.080;2024-02-28T09:27:29;26.50;;;13.10;;
20283;SDS011;10301;50.832;4.080;2024-02-28T09:29:58;28.13;;;15.33;;
20283;SDS011;10301;50.832;4.080;2024-02-28T09:32:23;24.80;;;14.63;;
20283;SDS011;10301;50.832;4.080;2024-02-28T09:34:49;23.63;;;14.53;;
20283;SDS011;10301;50.832;4.080;2024-02-28T09:37:14;22.37;;;14.00;;
20283;SDS011;10301;50.832;4.080;2024-02-28T09:39:42;26.10;;;13.77;;
20283;SDS011;10301;50.832;4.080;2024-02-28T09:42:07;23.80;;;13.47;;
20283;SDS011;10301;50.832;4.080;2024-02-28T09:44:34;22.90;;;14.00;;
20283;SDS011;10301;50.832;4.080;2024-02-28T09:47:01;23.53;;;13.90;;
20283;SDS011;10301;50.832;4.080;2024-02-28T09:49:27;24.03;;;14.90;;
20283;SDS011;10301;50.832;4.080;2024-02-28T09:51:56;23.67;;;15.03;;
20283;SDS011;10301;50.832;4.080;2024-02-28T09:54:23;24.63;;;14.30;;
20283;SDS011;10301;50.832;4.080;2024-02-28T09:56:48;23.07;;;14.20;;
20283;SDS011;10301;50.832;4.080;2024-02-28T09:59:16;23.77;;;15.00;;
20283;SDS011;10301;50.832;4.080;2024-02-28T10:01:44;20.53;;;13.73;;
20283;SDS011;10301;50.832;4.080;2024-02-28T10:04:16;21.60;;;13.93;;
20283;SDS011;10301;50.832;4.080;2024-02-28T10:06:42;26.17;;;13.77;;
20283;SDS011;10301;50.832;4.080;2024-02-28T10:09:08;21.83;;;13.47;;
20283;SDS011;10301;50.832;4.080;2024-02-28T10:11:35;21.33;;;12.93;;
20283;SDS011;10301;50.832;4.080;2024-02-28T10:14:02;20.63;;;12.50;;
20283;SDS011;10301;50.832;4.080;2024-02-28T10:16:29;20.97;;;12.53;;
20283;SDS011;10301;50.832;4.080;2024-02-28T10:18:54;22.20;;;12.90;;
20283;SDS011;10301;50.832;4.080;2024-02-28T10:21:20;20.80;;;12.77;;
20283;SDS011;10301;50.832;4.080;2024-02-28T10:23:46;18.73;;;11.93;;
20283;SDS011;10301;50.832;4.080;2024-02-28T10:26:11;20.33;;;12.17;;
20283;SDS011;10301;50.832;4.080;2024-02-28T10:28:38;21.10;;;13.13;;
20283;SDS011;10301;50.832;4.080;2024-02-28T10:31:05;20.97;;;13.30;;
20283;SDS011;10301;50.832;4.080;2024-02-28T10:33:32;20.63;;;12.37;;
20283;SDS011;10301;50.832;4.080;2024-02-28T10:36:00;25.77;;;12.20;;
20283;SDS011;10301;50.832;4.080;2024-02-28T10:38:30;19.23;;;12.20;;
20283;SDS011;10301;50.832;4.080;2024-02-28T10:40:58;23.77;;;12.80;;
20283;SDS011;10301;50.832;4.080;2024-02-28T10:43:28;22.10;;;13.33;;
20283;SDS011;10301;50.832;4.080;2024-02-28T10:45:56;23.80;;;12.43;;
20283;SDS011;10301;50.832;4.080;2024-02-28T10:48:24;21.60;;;13.20;;
20283;SDS011;10301;50.832;4.080;2024-02-28T10:50:50;20.00;;;12.93;;
20283;SDS011;10301;50.832;4.080;2024-02-28T10:53:16;21.73;;;12.20;;
20283;SDS011;10301;50.832;4.080;2024-02-28T10:56:05;18.70;;;11.67;;
20283;SDS011;10301;50.832;4.080;2024-02-28T10:58:33;18.37;;;12.00;;
20283;SDS011;10301;50.832;4.080;2024-02-28T11:01:03;16.43;;;10.60;;
20283;SDS011;10301;50.832;4.080;2024-02-28T11:03:30;19.67;;;11.93;;
20283;SDS011;10301;50.832;4.080;2024-02-28T11:05:56;17.73;;;11.73;;
20283;SDS011;10301;50.832;4.080;2024-02-28T11:08:23;18.23;;;11.47;;
20283;SDS011;10301;50.832;4.080;2024-02-28T11:11:02;19.42;;;11.13;;
20283;SDS011;10301;50.832;4.080;2024-02-28T11:13:31;18.50;;;10.80;;
20283;SDS011;10301;50.832;4.080;2024-02-28T11:16:06;18.83;;;10.60;;
20283;SDS011;10301;50.832;4.080;2024-02-28T11:18:33;17.05;;;10.10;;
20283;SDS011;10301;50.832;4.080;2024-02-28T11:20:58;15.90;;;11.57;;
20283;SDS011;10301;50.832;4.080;2024-02-28T11:23:24;14.77;;;10.02;;
20283;SDS011;10301;50.832;4.080;2024-02-28T11:25:51;15.82;;;9.43;;
20283;SDS011;10301;50.832;4.080;2024-02-28T11:28:17;17.67;;;11.15;;
20283;SDS011;10301;50.832;4.080;2024-02-28T11:30:47;14.88;;;9.70;;
20283;SDS011;10301;50.832;4.080;2024-02-28T11:33:13;15.40;;;9.70;;
20283;SDS011;10301;50.832;4.080;2024-02-28T11:35:39;15.75;;;9.68;;
20283;SDS011;10301;50.832;4.080;2024-02-28T11:38:06;16.55;;;9.65;;
20283;SDS011;10301;50.832;4.080;2024-02-28T11:40:31;15.27;;;9.02;;
20283;SDS011;10301;50.832;4.080;2024-02-28T11:42:57;15.93;;;9.68;;
20283;SDS011;10301;50.832;4.080;2024-02-28T11:45:24;16.60;;;8.40;;
20283;SDS011;10301;50.832;4.080;2024-02-28T11:47:52;15.38;;;8.45;;
20283;SDS011;10301;50.832;4.080;2024-02-28T11:50:18;13.97;;;8.83;;
20283;SDS011;10301;50.832;4.080;2024-02-28T11:52:44;14.50;;;8.63;;
20283;SDS011;10301;50.832;4.080;2024-02-28T11:55:10;12.47;;;8.47;;
20283;SDS011;10301;50.832;4.080;2024-02-28T11:57:36;11.77;;;7.90;;
20283;SDS011;10301;50.832;4.080;2024-02-28T12:00:06;15.43;;;9.43;;
20283;SDS011;10301;50.832;4.080;2024-02-28T12:02:32;14.53;;;7.97;;
20283;SDS011;10301;50.832;4.080;2024-02-28T12:05:01;12.07;;;8.10;;
20283;SDS011;10301;50.832;4.080;2024-02-28T12:07:31;15.10;;;8.43;;
20283;SDS011;10301;50.832;4.080;2024-02-28T12:09:58;11.85;;;8.05;;
20283;SDS011;10301;50.832;4.080;2024-02-28T12:12:24;15.80;;;7.80;;
20283;SDS011;10301;50.832;4.080;2024-02-28T12:14:51;13.48;;;8.45;;
20283;SDS011;10301;50.832;4.080;2024-02-28T12:17:17;14.52;;;8.48;;
20283;SDS011;10301;50.832;4.080;2024-02-28T12:19:43;14.55;;;7.47;;
20283;SDS011;10301;50.832;4.080;2024-02-28T12:22:09;11.35;;;7.40;;
20283;SDS011;10301;50.832;4.080;2024-02-28T12:24:36;13.95;;;7.57;;
20283;SDS011;10301;50.832;4.080;2024-02-28T12:27:01;12.60;;;7.47;;
20283;SDS011;10301;50.832;4.080;2024-02-28T12:29:27;11.13;;;7.85;;
20283;SDS011;10301;50.832;4.080;2024-02-28T12:31:53;11.93;;;7.45;;
20283;SDS011;10301;50.832;4.080;2024-02-28T12:34:18;12.15;;;7.60;;
20283;SDS011;10301;50.832;4.080;2024-02-28T12:36:44;11.70;;;8.10;;
20283;SDS011;10301;50.832;4.080;2024-02-28T12:39:10;13.38;;;7.78;;
20283;SDS011;10301;50.832;4.080;2024-02-28T12:41:37;12.45;;;7.47;;
20283;SDS011;10301;50.832;4.080;2024-02-28T12:44:04;13.32;;;8.13;;
20283;SDS011;10301;50.832;4.080;2024-02-28T12:46:33;15.93;;;8.60;;
20283;SDS011;10301;50.832;4.080;2024-02-28T12:48:59;13.35;;;7.68;;
20283;SDS011;10301;50.832;4.080;2024-02-28T12:51:45;11.45;;;7.55;;
20283;SDS011;10301;50.832;4.080;2024-02-28T12:54:11;12.05;;;7.13;;
20283;SDS011;10301;50.832;4.080;2024-02-28T12:56:41;12.07;;;8.10;;
20283;SDS011;10301;50.832;4.080;2024-02-28T12:59:10;14.40;;;8.32;;
20283;SDS011;10301;50.832;4.080;2024-02-28T13:01:36;12.75;;;7.35;;
20283;SDS011;10301;50.832;4.080;2024-02-28T13:04:02;9.93;;;6.60;;
20283;SDS011;10301;50.832;4.080;2024-02-28T13:06:28;11.93;;;8.13;;
20283;SDS011;10301;50.832;4.080;2024-02-28T13:08:54;13.60;;;7.28;;
20283;SDS011;10301;50.832;4.080;2024-02-28T13:11:20;13.52;;;7.00;;
20283;SDS011;10301;50.832;4.080;2024-02-28T13:13:48;12.63;;;7.63;;
20283;SDS011;10301;50.832;4.080;2024-02-28T13:16:14;14.07;;;7.50;;
20283;SDS011;10301;50.832;4.080;2024-02-28T13:18:41;12.50;;;7.13;;
20283;SDS011;10301;50.832;4.080;2024-02-28T13:21:07;11.98;;;7.47;;
20283;SDS011;10301;50.832;4.080;2024-02-28T13:23:33;12.57;;;7.15;;
20283;SDS011;10301;50.832;4.080;2024-02-28T13:25:59;12.35;;;6.10;;
20283;SDS011;10301;50.832;4.080;2024-02-28T13:28:26;11.27;;;6.18;;
20283;SDS011;10301;50.832;4.080;2024-02-28T13:30:57;13.35;;;6.38;;
20283;SDS011;10301;50.832;4.080;2024-02-28T13:33:24;12.00;;;5.93;;
20283;SDS011;10301;50.832;4.080;2024-02-28T13:35:50;9.15;;;5.38;;
20283;SDS011;10301;50.832;4.080;2024-02-28T13:38:16;8.80;;;5.55;;
20283;SDS011;10301;50.832;4.080;2024-02-28T13:40:44;9.60;;;6.30;;
20283;SDS011;10301;50.832;4.080;2024-02-28T13:43:11;8.25;;;4.93;;
20283;SDS011;10301;50.832;4.080;2024-02-28T13:45:40;9.50;;;4.88;;
20283;SDS011;10301;50.832;4.080;2024-02-28T13:48:18;7.85;;;4.45;;
20283;SDS011;10301;50.832;4.080;2024-02-28T13:50:46;7.03;;;4.40;;
20283;SDS011;10301;50.832;4.080;2024-02-28T13:53:12;6.88;;;5.57;;
20283;SDS011;10301;50.832;4.080;2024-02-28T13:55:40;9.20;;;5.13;;
20283;SDS011;10301;50.832;4.080;2024-02-28T13:58:10;6.45;;;3.47;;
20283;SDS011;10301;50.832;4.080;2024-02-28T14:00:37;7.80;;;4.32;;
20283;SDS011;10301;50.832;4.080;2024-02-28T14:03:03;9.25;;;3.83;;
20283;SDS011;10301;50.832;4.080;2024-02-28T14:05:30;6.13;;;4.10;;
20283;SDS011;10301;50.832;4.080;2024-02-28T14:07:56;6.80;;;3.50;;
20283;SDS011;10301;50.832;4.080;2024-02-28T14:10:24;6.13;;;3.70;;
20283;SDS011;10301;50.832;4.080;2024-02-28T14:12:51;5.80;;;4.50;;
20283;SDS011;10301;50.832;4.080;2024-02-28T14:15:20;6.18;;;3.40;;
20283;SDS011;10301;50.832;4.080;2024-02-28T14:17:46;6.50;;;3.35;;
20283;SDS011;10301;50.832;4.080;2024-02-28T14:20:12;5.60;;;3.30;;
20283;SDS011;10301;50.832;4.080;2024-02-28T14:22:38;7.95;;;3.92;;
20283;SDS011;10301;50.832;4.080;2024-02-28T14:25:07;7.55;;;4.15;;